createdAt,value
2023-05-09T00:01:30.021Z,14.69
2023-05-09T00:03:33.433Z,14.73
2023-05-09T00:05:35.035Z,14.57
2023-05-09T00:07:37.195Z,14.49
2023-05-09T00:09:39.055Z,14.50
2023-05-09T00:11:40.783Z,14.51
2023-05-09T00:13:44.248Z,14.41
2023-05-09T00:15:47.177Z,14.44
2023-05-09T00:17:50.694Z,14.60
2023-05-09T00:19:53.025Z,14.54
2023-05-09T00:21:54.505Z,14.44
2023-05-09T00:23:56.846Z,14.41
2023-05-09T00:25:59.399Z,14.34
2023-05-09T00:28:01.089Z,14.34
2023-05-09T00:30:04.434Z,14.37
2023-05-09T00:32:06.324Z,14.48
2023-05-09T00:34:07.923Z,14.42
2023-05-09T00:36:09.554Z,14.56
2023-05-09T00:38:11.331Z,14.39
2023-05-09T00:40:13.419Z,14.34
2023-05-09T00:42:14.951Z,14.30
2023-05-09T00:44:16.517Z,14.31
2023-05-09T00:46:18.106Z,14.24
2023-05-09T00:48:20.093Z,14.31
2023-05-09T00:50:22.164Z,14.20
2023-05-09T00:52:26.080Z,14.25
2023-05-09T00:54:28.213Z,14.20
2023-05-09T00:56:30.579Z,14.17
2023-05-09T00:58:32.656Z,14.19
2023-05-09T01:00:34.316Z,14.20
2023-05-09T01:02:36.838Z,14.17
2023-05-09T01:04:40.236Z,14.19
2023-05-09T01:07:06.719Z,14.17
2023-05-09T01:09:24.235Z,14.09
2023-05-09T01:11:38.765Z,14.24
2023-05-09T01:13:43.063Z,14.13
2023-05-09T01:15:59.745Z,14.18
2023-05-09T01:18:11.289Z,14.20
2023-05-09T01:20:31.311Z,14.28
2023-05-09T01:22:36.307Z,14.12
2023-05-09T01:24:59.903Z,14.09
2023-05-09T01:27:28.581Z,14.06
2023-05-09T01:29:39.399Z,14.03
2023-05-09T01:31:44.138Z,14.02
2023-05-09T01:33:51.221Z,14.05
2023-05-09T01:35:59.630Z,14.00
2023-05-09T01:38:04.674Z,14.06
2023-05-09T01:40:15.489Z,14.07
2023-05-09T01:42:20.471Z,14.16
2023-05-09T01:44:23.578Z,14.15
2023-05-09T01:46:27.259Z,14.21
2023-05-09T01:48:31.360Z,14.18
2023-05-09T01:50:36.077Z,14.18
2023-05-09T01:52:39.034Z,14.06
2023-05-09T01:54:41.954Z,14.12
2023-05-09T01:56:44.859Z,14.13
2023-05-09T01:58:50.964Z,14.14
2023-05-09T02:00:53.202Z,14.25
2023-05-09T02:02:55.529Z,14.38
2023-05-09T02:04:58.557Z,14.21
2023-05-09T02:07:01.739Z,14.26
2023-05-09T02:09:03.526Z,14.21
2023-05-09T02:11:05.350Z,14.24
2023-05-09T02:13:09.058Z,14.10
2023-05-09T02:15:11.412Z,14.03
2023-05-09T02:17:17.015Z,14.23
2023-05-09T02:19:18.678Z,14.29
2023-05-09T02:21:20.589Z,14.15
2023-05-09T02:23:22.508Z,14.12
2023-05-09T02:25:24.177Z,14.11
2023-05-09T02:27:27.539Z,14.12
2023-05-09T02:29:40.688Z,14.20
2023-05-09T02:31:44.802Z,14.15
2023-05-09T02:33:47.894Z,14.12
2023-05-09T02:35:51.037Z,14.06
2023-05-09T02:37:53.978Z,14.08
2023-05-09T02:39:55.858Z,14.18
2023-05-09T02:42:01.676Z,14.23
2023-05-09T02:44:03.285Z,14.25
2023-05-09T02:46:04.954Z,14.27
2023-05-09T02:48:08.747Z,14.09
2023-05-09T02:50:11.454Z,14.08
2023-05-09T02:52:14.239Z,14.31
2023-05-09T02:54:16.204Z,14.20
2023-05-09T02:56:17.821Z,14.21
2023-05-09T02:58:20.196Z,14.18
2023-05-09T03:00:22.203Z,14.11
2023-05-09T03:02:24.126Z,14.23
2023-05-09T03:04:27.180Z,14.22
2023-05-09T03:06:28.972Z,14.14
2023-05-09T03:08:30.963Z,14.07
2023-05-09T03:10:32.839Z,13.98
2023-05-09T03:12:34.389Z,13.92
2023-05-09T03:14:36.438Z,14.00
2023-05-09T03:16:38.282Z,13.77
2023-05-09T03:18:44.660Z,13.72
2023-05-09T03:20:46.380Z,13.58
2023-05-09T03:22:48.468Z,13.70
2023-05-09T03:24:50.412Z,13.57
2023-05-09T03:26:52.800Z,13.64
2023-05-09T03:28:54.698Z,13.38
2023-05-09T03:30:56.758Z,13.41
2023-05-09T03:33:01.266Z,13.30
2023-05-09T03:35:03.201Z,13.12
2023-05-09T03:37:05.613Z,13.10
2023-05-09T03:39:09.924Z,13.06
2023-05-09T03:41:17.328Z,13.00
2023-05-09T03:43:20.598Z,13.01
2023-05-09T03:45:22.504Z,12.86
2023-05-09T03:47:24.290Z,12.87
2023-05-09T03:49:26.069Z,12.95
2023-05-09T03:51:29.644Z,12.99
2023-05-09T03:53:31.875Z,13.08
2023-05-09T03:55:33.567Z,13.01
2023-05-09T03:57:35.763Z,12.93
2023-05-09T03:59:37.535Z,13.08
2023-05-09T04:01:40.254Z,13.02
2023-05-09T04:03:43.082Z,12.92
2023-05-09T04:05:46.364Z,13.02
2023-05-09T04:07:57.286Z,12.97
2023-05-09T04:09:59.254Z,13.09
2023-05-09T04:12:01.167Z,13.05
2023-05-09T04:14:06.991Z,13.20
2023-05-09T04:16:10.461Z,13.15
2023-05-09T04:18:12.028Z,13.21
2023-05-09T04:20:13.610Z,13.24
2023-05-09T04:22:17.025Z,13.17
2023-05-09T04:24:19.039Z,13.24
2023-05-09T04:26:23.028Z,13.26
2023-05-09T04:28:27.431Z,13.23
2023-05-09T04:30:30.792Z,13.29
2023-05-09T04:32:33.864Z,13.29
2023-05-09T04:34:35.746Z,13.44
2023-05-09T04:36:43.477Z,13.38
2023-05-09T04:38:45.395Z,13.37
2023-05-09T04:40:50.892Z,13.46
2023-05-09T04:42:52.723Z,13.58
2023-05-09T04:44:57.399Z,13.53
2023-05-09T04:46:59.103Z,13.63
2023-05-09T04:49:00.808Z,13.79
2023-05-09T04:51:02.535Z,13.96
2023-05-09T04:53:04.366Z,13.75
2023-05-09T04:55:06.413Z,13.70
2023-05-09T04:57:17.731Z,13.77
2023-05-09T04:59:22.227Z,13.83
2023-05-09T05:01:25.068Z,13.82
2023-05-09T05:03:26.774Z,13.65
2023-05-09T05:05:28.666Z,13.83
2023-05-09T05:07:30.829Z,13.87
2023-05-09T05:09:32.373Z,13.72
2023-05-09T05:11:34.174Z,13.68
2023-05-09T05:13:38.047Z,13.61
2023-05-09T05:15:40.820Z,13.69
2023-05-09T05:17:43.407Z,13.76
2023-05-09T05:19:45.438Z,13.78
2023-05-09T05:21:47.711Z,13.85
2023-05-09T05:23:49.305Z,13.93
2023-05-09T05:25:51.198Z,13.80
2023-05-09T05:27:53.388Z,13.74
2023-05-09T05:29:54.977Z,13.64
2023-05-09T05:31:56.876Z,13.87
2023-05-09T05:33:58.767Z,13.84
2023-05-09T05:36:00.626Z,13.82
2023-05-09T05:38:02.338Z,13.63
2023-05-09T05:40:06.014Z,13.47
2023-05-09T05:42:08.326Z,13.42
2023-05-09T05:44:10.361Z,13.61
2023-05-09T05:46:13.330Z,13.81
2023-05-09T05:48:14.907Z,13.66
2023-05-09T05:50:16.507Z,13.74
2023-05-09T05:52:18.584Z,13.80
2023-05-09T05:54:20.367Z,13.74
2023-05-09T05:56:22.672Z,13.80
2023-05-09T05:58:24.911Z,13.71
2023-05-09T06:00:27.345Z,13.67
2023-05-09T06:02:36.053Z,13.90
2023-05-09T06:04:37.964Z,13.74
2023-05-09T06:06:39.773Z,13.67
2023-05-09T06:08:41.278Z,13.76
2023-05-09T06:10:42.776Z,13.64
2023-05-09T06:12:44.366Z,13.63
2023-05-09T06:14:46.075Z,13.75
2023-05-09T06:16:48.350Z,13.69
2023-05-09T06:18:50.144Z,13.52
2023-05-09T06:20:51.646Z,13.69
2023-05-09T06:22:53.196Z,13.67
2023-05-09T06:24:54.781Z,13.77
2023-05-09T06:26:56.414Z,13.87
2023-05-09T06:28:58.603Z,13.84
2023-05-09T06:31:00.786Z,14.00
2023-05-09T06:33:02.659Z,14.01
2023-05-09T06:35:04.623Z,14.00
2023-05-09T06:37:06.452Z,14.12
2023-05-09T06:39:08.292Z,14.27
2023-05-09T06:41:09.822Z,14.26
2023-05-09T06:43:11.582Z,14.34
2023-05-09T06:45:13.976Z,14.29
2023-05-09T06:47:15.911Z,14.15
2023-05-09T06:49:17.502Z,14.15
2023-05-09T06:51:19.266Z,14.12
2023-05-09T06:53:20.798Z,14.29
2023-05-09T06:55:22.364Z,14.27
2023-05-09T06:57:23.989Z,14.37
2023-05-09T06:59:26.109Z,14.60
2023-05-09T07:01:27.750Z,14.59
2023-05-09T07:03:29.417Z,14.56
2023-05-09T07:05:31.071Z,14.61
2023-05-09T07:07:32.683Z,14.65
2023-05-09T07:09:34.769Z,14.75
2023-05-09T07:11:36.915Z,14.85
2023-05-09T07:13:38.763Z,15.10
2023-05-09T07:15:42.703Z,15.13
2023-05-09T07:17:45.045Z,15.25
2023-05-09T07:19:46.874Z,15.59
2023-05-09T07:21:48.488Z,15.70
2023-05-09T07:23:50.245Z,15.76
2023-05-09T07:25:59.083Z,15.75
2023-05-09T07:28:00.983Z,16.08
2023-05-09T07:30:06.357Z,16.43
2023-05-09T07:32:09.201Z,16.47
2023-05-09T07:34:10.793Z,16.63
2023-05-09T07:36:13.555Z,16.88
2023-05-09T07:38:15.625Z,17.08
2023-05-09T07:40:18.051Z,17.28
2023-05-09T07:42:19.950Z,17.36
2023-05-09T07:44:21.471Z,17.41
2023-05-09T07:46:23.521Z,17.33
2023-05-09T07:48:25.206Z,17.31
2023-05-09T07:50:26.791Z,17.45
2023-05-09T07:52:28.834Z,17.36
2023-05-09T07:54:30.385Z,17.41
2023-05-09T07:56:31.976Z,17.66
2023-05-09T07:58:33.768Z,17.60
2023-05-09T08:00:36.018Z,17.67
2023-05-09T08:02:37.661Z,17.88
2023-05-09T08:04:41.229Z,18.06
2023-05-09T08:06:43.325Z,18.19
2023-05-09T08:08:45.089Z,18.26
2023-05-09T08:10:46.644Z,18.23
2023-05-09T08:12:48.766Z,18.34
2023-05-09T08:14:50.716Z,18.41
2023-05-09T08:16:52.286Z,18.50
2023-05-09T08:18:54.779Z,18.53
2023-05-09T08:20:56.786Z,18.63
2023-05-09T08:22:58.592Z,18.58
2023-05-09T08:25:00.383Z,18.57
2023-05-09T08:27:01.917Z,18.53
2023-05-09T08:29:03.494Z,18.25
2023-05-09T08:31:05.239Z,18.22
2023-05-09T08:33:07.188Z,18.21
2023-05-09T08:35:08.987Z,18.18
2023-05-09T08:37:12.275Z,18.06
2023-05-09T08:39:16.364Z,18.40
2023-05-09T08:41:18.265Z,18.29
2023-05-09T08:43:23.175Z,18.29
2023-05-09T08:45:29.004Z,18.52
2023-05-09T08:47:31.309Z,18.81
2023-05-09T08:49:35.063Z,19.19
2023-05-09T08:51:38.056Z,19.40
2023-05-09T08:53:40.105Z,19.47
2023-05-09T08:55:42.260Z,19.84
2023-05-09T08:57:44.135Z,19.96
2023-05-09T08:59:46.431Z,20.04
2023-05-09T09:01:50.309Z,20.01
2023-05-09T09:03:52.752Z,20.06
2023-05-09T09:05:55.820Z,20.23
2023-05-09T09:07:58.238Z,20.23
2023-05-09T09:10:00.928Z,20.14
2023-05-09T09:12:07.497Z,20.36
2023-05-09T09:14:15.488Z,20.53
2023-05-09T09:16:20.964Z,20.66
2023-05-09T09:18:27.996Z,20.91
2023-05-09T09:20:33.362Z,20.88
2023-05-09T09:22:35.712Z,20.67
2023-05-09T09:24:37.574Z,20.80
2023-05-09T09:26:48.217Z,21.39
2023-05-09T09:28:50.087Z,21.58
2023-05-09T09:30:51.961Z,21.05
2023-05-09T09:32:53.521Z,20.49
2023-05-09T09:35:06.957Z,20.40
2023-05-09T09:37:08.572Z,20.26
2023-05-09T09:39:13.629Z,19.97
2023-05-09T09:41:15.593Z,19.94
2023-05-09T09:43:17.223Z,20.07
2023-05-09T09:45:20.185Z,20.53
2023-05-09T09:47:31.478Z,20.89
2023-05-09T09:49:33.240Z,20.94
2023-05-09T09:51:35.325Z,20.60
2023-05-09T09:53:43.449Z,20.44
2023-05-09T09:55:52.481Z,20.20
2023-05-09T09:57:54.930Z,20.20
2023-05-09T09:59:59.538Z,20.56
2023-05-09T10:02:08.218Z,20.96
2023-05-09T10:04:16.090Z,21.40
2023-05-09T10:06:17.879Z,21.72
2023-05-09T10:08:19.738Z,21.69
2023-05-09T10:10:21.750Z,21.98
2023-05-09T10:12:23.722Z,22.07
2023-05-09T10:14:26.656Z,22.02
2023-05-09T10:16:42.588Z,22.12
2023-05-09T10:18:45.689Z,22.39
2023-05-09T10:20:47.324Z,22.40
2023-05-09T10:22:50.630Z,22.14
2023-05-09T10:25:13.036Z,22.79
2023-05-09T10:27:18.385Z,22.97
2023-05-09T10:29:23.926Z,22.93
2023-05-09T10:31:29.544Z,23.07
2023-05-09T10:33:37.819Z,23.21
2023-05-09T10:35:46.399Z,23.25
2023-05-09T10:37:48.347Z,23.03
2023-05-09T10:39:53.590Z,23.26
2023-05-09T10:41:55.944Z,23.03
2023-05-09T10:43:58.760Z,23.37
2023-05-09T10:46:01.645Z,23.29
2023-05-09T10:48:07.050Z,23.38
2023-05-09T10:50:12.312Z,23.93
2023-05-09T10:52:14.872Z,23.84
2023-05-09T10:54:32.476Z,24.16
2023-05-09T10:56:39.487Z,24.43
2023-05-09T10:58:41.885Z,24.69
2023-05-09T11:00:43.889Z,25.01
2023-05-09T11:03:06.629Z,23.98
2023-05-09T11:05:17.516Z,23.68
2023-05-09T11:07:23.962Z,23.83
2023-05-09T11:09:38.692Z,23.82
2023-05-09T11:11:51.450Z,24.24
2023-05-09T11:13:57.889Z,24.55
2023-05-09T11:15:59.382Z,24.63
2023-05-09T11:18:09.602Z,24.84
2023-05-09T11:20:11.237Z,25.22
2023-05-09T11:22:28.004Z,24.97
2023-05-09T11:24:32.754Z,25.53
2023-05-09T11:26:34.429Z,25.52
2023-05-09T11:28:38.257Z,25.25
2023-05-09T11:30:44.397Z,24.83
2023-05-09T11:32:55.424Z,24.65
2023-05-09T11:35:07.632Z,24.58
2023-05-09T11:37:11.220Z,25.21
2023-05-09T11:39:24.835Z,25.04
2023-05-09T11:41:27.086Z,24.76
2023-05-09T11:43:29.520Z,24.57
2023-05-09T11:45:33.471Z,24.41
2023-05-09T11:47:37.121Z,24.41
2023-05-09T11:49:43.005Z,24.70
2023-05-09T11:51:44.755Z,25.24
2023-05-09T11:53:50.438Z,25.21
2023-05-09T11:55:52.265Z,24.66
2023-05-09T11:57:54.691Z,24.51
2023-05-09T11:59:56.639Z,24.71
2023-05-09T12:02:01.935Z,24.29
2023-05-09T12:04:07.641Z,24.46
2023-05-09T12:06:09.399Z,24.80
2023-05-09T12:08:10.969Z,24.88
2023-05-09T12:10:15.736Z,24.39
2023-05-09T12:12:20.763Z,24.67
2023-05-09T12:14:33.421Z,24.92
2023-05-09T12:16:35.079Z,25.25
2023-05-09T12:18:36.955Z,25.24
2023-05-09T12:20:43.760Z,25.09
2023-05-09T12:22:52.892Z,25.11
2023-05-09T12:24:54.776Z,25.30
2023-05-09T12:26:57.115Z,25.82
2023-05-09T12:28:59.014Z,25.96
2023-05-09T12:31:01.574Z,25.85
2023-05-09T12:33:03.356Z,25.59
2023-05-09T12:35:06.363Z,25.62
2023-05-09T12:37:18.080Z,25.59
2023-05-09T12:39:24.516Z,25.28
2023-05-09T12:43:32.674Z,25.10
2023-05-09T12:45:34.304Z,24.85
2023-05-09T12:47:37.205Z,25.43
2023-05-09T12:49:39.011Z,25.43
2023-05-09T12:51:48.258Z,25.93
2023-05-09T12:53:50.099Z,26.31
2023-05-09T12:55:54.463Z,26.79
2023-05-09T12:58:01.506Z,27.41
2023-05-09T13:00:06.535Z,27.22
2023-05-09T13:02:08.146Z,26.45
2023-05-09T13:04:12.541Z,26.46
2023-05-09T13:06:14.630Z,26.88
2023-05-09T13:08:16.274Z,27.23
2023-05-09T13:10:27.328Z,27.12
2023-05-09T13:12:29.114Z,27.22
2023-05-09T13:14:30.924Z,27.00
2023-05-09T13:16:32.490Z,26.51
2023-05-09T13:18:34.109Z,25.96
2023-05-09T13:20:35.767Z,25.84
2023-05-09T13:22:37.589Z,25.76
2023-05-09T13:24:39.064Z,26.07
2023-05-09T13:26:40.704Z,26.44
2023-05-09T13:28:42.238Z,26.55
2023-05-09T13:30:45.643Z,26.65
2023-05-09T13:32:47.581Z,26.95
2023-05-09T13:34:51.046Z,27.30
2023-05-09T13:36:52.783Z,27.51
2023-05-09T13:38:54.564Z,27.22
2023-05-09T13:40:56.072Z,26.32
2023-05-09T13:42:57.578Z,26.25
2023-05-09T13:44:59.446Z,26.57
2023-05-09T13:47:01.298Z,26.99
2023-05-09T13:49:02.911Z,27.56
2023-05-09T13:51:06.184Z,27.68
2023-05-09T13:53:08.234Z,27.88
2023-05-09T13:55:09.858Z,27.90
2023-05-09T13:57:11.529Z,27.88
2023-05-09T13:59:13.481Z,28.22
2023-05-09T14:01:15.865Z,28.71
2023-05-09T14:03:17.761Z,29.01
2023-05-09T14:05:19.216Z,28.70
2023-05-09T14:07:21.533Z,28.09
2023-05-09T14:09:23.197Z,27.39
2023-05-09T14:11:25.634Z,27.23
2023-05-09T14:13:27.338Z,27.08
2023-05-09T14:15:30.048Z,27.50
2023-05-09T14:17:31.806Z,27.77
2023-05-09T14:19:34.142Z,27.94
2023-05-09T14:21:36.421Z,28.28
2023-05-09T14:23:38.424Z,28.84
2023-05-09T14:25:39.940Z,28.25
2023-05-09T14:27:41.900Z,28.16
2023-05-09T14:29:47.488Z,27.98
2023-05-09T14:31:49.069Z,28.43
2023-05-09T14:33:50.851Z,28.39
2023-05-09T14:35:52.328Z,27.68
2023-05-09T14:37:53.901Z,27.36
2023-05-09T14:39:56.063Z,27.25
2023-05-09T14:41:57.589Z,26.87
2023-05-09T14:43:59.513Z,26.56
2023-05-09T14:46:01.044Z,26.92
2023-05-09T14:48:03.653Z,26.27
2023-05-09T14:50:05.899Z,25.83
2023-05-09T14:52:07.552Z,25.54
2023-05-09T14:54:09.079Z,25.65
2023-05-09T14:56:13.418Z,25.38
2023-05-09T14:58:16.054Z,25.24
2023-05-09T15:00:21.966Z,24.92
2023-05-09T15:02:24.938Z,24.96
2023-05-09T15:04:31.766Z,25.00
2023-05-09T15:06:35.191Z,25.08
2023-05-09T15:08:36.798Z,24.96
2023-05-09T15:10:38.630Z,24.95
2023-05-09T15:12:40.210Z,24.78
2023-05-09T15:14:42.478Z,25.28
2023-05-09T15:16:44.142Z,25.93
2023-05-09T15:18:46.078Z,26.48
2023-05-09T15:20:47.610Z,26.38
2023-05-09T15:22:50.759Z,26.73
2023-05-09T15:24:52.358Z,26.99
2023-05-09T15:26:54.455Z,26.36
2023-05-09T15:28:56.347Z,26.02
2023-05-09T15:31:00.026Z,25.63
2023-05-09T15:33:01.947Z,25.09
2023-05-09T15:35:04.365Z,24.99
2023-05-09T15:37:06.206Z,24.92
2023-05-09T15:39:08.018Z,24.84
2023-05-09T15:41:09.624Z,24.61
2023-05-09T15:43:11.700Z,24.51
2023-05-09T15:45:14.189Z,24.37
2023-05-09T15:47:16.086Z,24.09
2023-05-09T15:49:18.309Z,23.67
2023-05-09T15:51:19.823Z,23.39
2023-05-09T15:53:22.990Z,23.47
2023-05-09T15:55:26.802Z,23.40
2023-05-09T15:57:30.066Z,23.44
2023-05-09T15:59:31.897Z,23.21
2023-05-09T16:01:35.306Z,23.10
2023-05-09T16:03:37.552Z,22.92
2023-05-09T16:05:40.967Z,22.63
2023-05-09T16:07:46.660Z,22.45
2023-05-09T16:09:48.265Z,22.36
2023-05-09T16:11:50.947Z,22.43
2023-05-09T16:13:52.940Z,22.38
2023-05-09T16:15:54.621Z,22.58
2023-05-09T16:17:56.574Z,22.50
2023-05-09T16:20:01.861Z,22.36
2023-05-09T16:22:03.691Z,22.49
2023-05-09T16:24:05.571Z,22.33
2023-05-09T16:26:07.982Z,22.20
2023-05-09T16:28:10.112Z,22.28
2023-05-09T16:30:12.187Z,22.08
2023-05-09T16:32:14.001Z,22.15
2023-05-09T16:34:15.917Z,21.94
2023-05-09T16:36:17.748Z,21.79
2023-05-09T16:38:19.603Z,21.87
2023-05-09T16:40:21.732Z,21.69
2023-05-09T16:42:23.490Z,21.64
2023-05-09T16:44:26.380Z,21.53
2023-05-09T16:46:28.245Z,21.28
2023-05-09T16:48:29.899Z,21.24
2023-05-09T16:50:31.600Z,21.11
2023-05-09T16:52:33.345Z,21.10
2023-05-09T16:54:34.901Z,21.06
2023-05-09T16:56:37.515Z,21.07
2023-05-09T16:58:39.525Z,21.00
2023-05-09T17:00:41.413Z,21.02
2023-05-09T17:02:42.997Z,20.83
2023-05-09T17:04:44.629Z,20.80
2023-05-09T17:06:46.271Z,20.64
2023-05-09T17:08:48.388Z,20.53
2023-05-09T17:10:49.901Z,20.45
2023-05-09T17:12:51.836Z,20.44
2023-05-09T17:14:53.698Z,20.58
2023-05-09T17:16:55.469Z,20.58
2023-05-09T17:18:57.268Z,20.56
2023-05-09T17:20:58.951Z,20.53
2023-05-09T17:23:00.497Z,20.50
2023-05-09T17:25:02.385Z,20.66
2023-05-09T17:27:04.672Z,20.58
2023-05-09T17:29:06.345Z,20.71
2023-05-09T17:31:08.119Z,20.46
2023-05-09T17:33:09.859Z,20.43
2023-05-09T17:35:12.243Z,20.30
2023-05-09T17:37:13.844Z,20.22
2023-05-09T17:39:15.449Z,20.20
2023-05-09T17:41:17.501Z,20.35
2023-05-09T17:43:19.227Z,20.43
2023-05-09T17:45:20.922Z,20.46
2023-05-09T17:47:22.729Z,20.41
2023-05-09T17:49:24.966Z,20.45
2023-05-09T17:51:27.137Z,20.44
2023-05-09T17:53:28.652Z,20.50
2023-05-09T17:55:30.250Z,20.63
2023-05-09T17:57:31.879Z,20.79
2023-05-09T17:59:33.686Z,20.79
2023-05-09T18:01:35.813Z,20.80
2023-05-09T18:03:37.788Z,20.83
2023-05-09T18:05:39.582Z,20.81
2023-05-09T18:07:41.358Z,20.89
2023-05-09T18:09:42.889Z,20.99
2023-05-09T18:11:44.718Z,20.83
2023-05-09T18:13:46.731Z,20.82
2023-05-09T18:15:48.445Z,20.68
2023-05-09T18:17:50.223Z,20.65
2023-05-09T18:19:53.000Z,20.27
2023-05-09T18:21:57.650Z,19.80
2023-05-09T18:23:59.746Z,19.39
2023-05-09T18:26:01.910Z,18.95
2023-05-09T18:28:03.489Z,18.65
2023-05-09T18:30:06.183Z,18.30
2023-05-09T18:32:07.812Z,18.11
2023-05-09T18:34:09.393Z,17.93
2023-05-09T18:36:11.274Z,17.83
2023-05-09T18:38:13.135Z,17.85
2023-05-09T18:40:16.261Z,17.72
2023-05-09T18:42:18.111Z,17.67
2023-05-09T18:44:19.636Z,17.77
2023-05-09T18:46:21.467Z,17.90
2023-05-09T18:48:23.160Z,17.73
2023-05-09T18:50:24.725Z,17.67
2023-05-09T18:52:27.586Z,17.43
2023-05-09T18:54:29.396Z,17.28
2023-05-09T18:56:31.070Z,17.22
2023-05-09T18:58:33.299Z,17.14
2023-05-09T19:00:35.820Z,17.18
2023-05-09T19:02:38.097Z,17.17
2023-05-09T19:04:40.224Z,16.92
2023-05-09T19:06:42.414Z,16.82
2023-05-09T19:08:44.151Z,16.91
2023-05-09T19:10:45.888Z,17.01
2023-05-09T19:12:49.254Z,16.96
2023-05-09T19:14:50.919Z,16.98
2023-05-09T19:16:52.661Z,16.84
2023-05-09T19:18:56.148Z,16.83
2023-05-09T19:20:57.851Z,16.70
2023-05-09T19:22:59.551Z,16.48
2023-05-09T19:25:01.422Z,16.67
2023-05-09T19:27:04.181Z,16.79
2023-05-09T19:29:08.294Z,16.93
2023-05-09T19:31:10.175Z,16.94
2023-05-09T19:33:11.818Z,16.98
2023-05-09T19:35:13.305Z,16.97
2023-05-09T19:37:15.071Z,17.00
2023-05-09T19:39:16.704Z,17.09
2023-05-09T19:41:18.250Z,17.10
2023-05-09T19:43:20.038Z,17.06
2023-05-09T19:45:21.561Z,16.87
2023-05-09T19:47:23.164Z,16.80
2023-05-09T19:49:24.759Z,16.74
2023-05-09T19:51:26.432Z,16.60
2023-05-09T19:53:28.068Z,16.64
2023-05-09T19:55:29.848Z,16.74
2023-05-09T19:57:31.495Z,16.77
2023-05-09T19:59:33.106Z,16.85
2023-05-09T20:01:34.723Z,16.94
2023-05-09T20:03:37.269Z,16.92
2023-05-09T20:05:39.104Z,16.84
2023-05-09T20:07:40.765Z,16.92
2023-05-09T20:09:42.674Z,16.90
2023-05-09T20:11:44.222Z,16.70
2023-05-09T20:13:45.861Z,16.56
2023-05-09T20:15:47.934Z,16.68
2023-05-09T20:17:49.547Z,16.65
2023-05-09T20:19:51.801Z,16.68
2023-05-09T20:21:53.352Z,16.55
2023-05-09T20:23:54.847Z,16.46
2023-05-09T20:25:56.818Z,16.36
2023-05-09T20:27:58.917Z,16.58
2023-05-09T20:30:00.515Z,16.50
2023-05-09T20:32:02.572Z,16.55
2023-05-09T20:34:04.402Z,16.51
2023-05-09T20:36:09.357Z,16.46
2023-05-09T20:38:12.128Z,16.45
2023-05-09T20:40:14.336Z,16.44
2023-05-09T20:42:16.255Z,16.36
2023-05-09T20:44:18.323Z,16.34
2023-05-09T20:46:20.489Z,16.31
2023-05-09T20:48:23.400Z,16.47
2023-05-09T20:50:25.131Z,16.35
2023-05-09T20:52:26.793Z,16.22
2023-05-09T20:54:28.951Z,16.13
2023-05-09T20:56:30.555Z,16.02
2023-05-09T20:58:34.217Z,15.86
2023-05-09T21:00:35.814Z,15.84
2023-05-09T21:02:37.615Z,15.95
2023-05-09T21:04:39.623Z,15.90
2023-05-09T21:06:41.308Z,15.82
2023-05-09T21:08:43.211Z,15.79
2023-05-09T21:10:44.985Z,15.81
2023-05-09T21:12:46.534Z,15.79
2023-05-09T21:14:48.951Z,15.80
2023-05-09T21:16:51.573Z,15.89
2023-05-09T21:18:53.323Z,15.82
2023-05-09T21:20:54.929Z,15.80
2023-05-09T21:22:56.433Z,15.83
2023-05-09T21:24:58.022Z,15.80
2023-05-09T21:27:00.131Z,15.73
2023-05-09T21:29:01.675Z,15.77
2023-05-09T21:31:03.530Z,15.73
2023-05-09T21:33:05.370Z,15.73
2023-05-09T21:35:10.925Z,15.64
2023-05-09T21:37:12.564Z,15.73
2023-05-09T21:39:14.171Z,15.76
2023-05-09T21:41:15.858Z,15.86
2023-05-09T21:43:18.245Z,15.79
2023-05-09T21:45:19.882Z,15.85
2023-05-09T21:47:21.773Z,15.86
2023-05-09T21:49:23.454Z,15.86
2023-05-09T21:51:25.218Z,15.89
2023-05-09T21:53:26.965Z,15.78
2023-05-09T21:55:28.560Z,15.81
2023-05-09T21:57:30.325Z,15.73
2023-05-09T21:59:32.806Z,15.71
2023-05-09T22:01:34.364Z,15.71
2023-05-09T22:03:36.406Z,15.67
2023-05-09T22:05:38.048Z,15.84
2023-05-09T22:07:39.703Z,15.74
2023-05-09T22:09:41.446Z,15.82
2023-05-09T22:11:43.226Z,15.79
2023-05-09T22:13:44.810Z,15.69
2023-05-09T22:15:46.887Z,15.56
2023-05-09T22:17:48.898Z,15.51
2023-05-09T22:19:50.423Z,15.56
2023-05-09T22:21:52.452Z,15.59
2023-05-09T22:23:54.164Z,15.52
2023-05-09T22:25:55.794Z,15.55
2023-05-09T22:27:57.382Z,15.41
2023-05-09T22:29:58.999Z,15.40
2023-05-09T22:32:01.955Z,15.40
2023-05-09T22:34:03.786Z,15.34
2023-05-09T22:36:05.700Z,15.26
2023-05-09T22:38:07.241Z,15.42
2023-05-09T22:40:09.422Z,15.35
2023-05-09T22:42:11.374Z,15.26
2023-05-09T22:44:13.041Z,15.28
2023-05-09T22:46:14.572Z,15.28
2023-05-09T22:48:16.273Z,15.42
2023-05-09T22:50:18.098Z,15.44
2023-05-09T22:52:20.082Z,15.38
2023-05-09T22:54:22.330Z,15.40
2023-05-09T22:56:23.961Z,15.36
2023-05-09T22:58:26.329Z,15.35
2023-05-09T23:00:29.114Z,15.41
2023-05-09T23:02:31.564Z,15.44
2023-05-09T23:04:33.196Z,15.34
2023-05-09T23:06:34.969Z,15.34
2023-05-09T23:08:36.536Z,15.33
2023-05-09T23:10:38.024Z,15.39
2023-05-09T23:12:39.518Z,15.33
2023-05-09T23:14:41.246Z,15.38
2023-05-09T23:16:42.787Z,15.33
2023-05-09T23:18:44.336Z,15.27
2023-05-09T23:20:45.801Z,15.20
2023-05-09T23:22:47.608Z,15.14
2023-05-09T23:24:49.341Z,15.07
2023-05-09T23:26:51.308Z,14.87
2023-05-09T23:28:55.131Z,14.92
2023-05-09T23:30:56.656Z,14.98
2023-05-09T23:32:58.267Z,14.97
2023-05-09T23:34:59.802Z,15.02
2023-05-09T23:37:02.798Z,15.00
2023-05-09T23:39:04.363Z,15.01
2023-05-09T23:41:06.267Z,14.92
2023-05-09T23:43:07.830Z,15.03
2023-05-09T23:45:10.352Z,14.96
2023-05-09T23:47:12.018Z,15.02
2023-05-09T23:49:14.559Z,14.99
2023-05-09T23:51:16.292Z,15.06
2023-05-09T23:53:17.949Z,15.08
2023-05-09T23:55:19.948Z,15.19
2023-05-09T23:57:21.497Z,15.05
2023-05-09T23:59:23.007Z,14.78
